sensor_id;sensor_type;location;lat;lon;timestamp;pressure;altitude;pressure_sealevel;temperature;humidity
40245;BME280;25963;42.694;23.600;2022-10-13T00:01:19;95969.78;;;8.50;100.00
40245;BME280;25963;42.694;23.600;2022-10-13T00:03:45;95955.94;;;8.41;100.00
40245;BME280;25963;42.694;23.600;2022-10-13T00:06:13;95967.41;;;8.40;100.00
40245;BME280;25963;42.694;23.600;2022-10-13T00:08:39;95967.75;;;8.37;100.00
40245;BME280;25963;42.694;23.600;2022-10-13T00:11:16;95966.59;;;8.24;100.00
40245;BME280;25963;42.694;23.600;2022-10-13T00:13:43;95966.78;;;8.38;100.00
40245;BME280;25963;42.694;23.600;2022-10-13T00:16:10;95968.06;;;8.42;100.00
40245;BME280;25963;42.694;23.600;2022-10-13T00:18:36;95967.31;;;8.48;100.00
40245;BME280;25963;42.694;23.600;2022-10-13T00:21:08;95967.31;;;8.48;100.00
40245;BME280;25963;42.694;23.600;2022-10-13T00:23:34;95966.50;;;8.48;100.00
40245;BME280;25963;42.694;23.600;2022-10-13T00:26:02;95959.53;;;8.40;100.00
40245;BME280;25963;42.694;23.600;2022-10-13T00:28:29;95955.44;;;8.37;100.00
40245;BME280;25963;42.694;23.600;2022-10-13T00:30:54;95961.53;;;8.38;100.00
40245;BME280;25963;42.694;23.600;2022-10-13T00:33:20;95953.28;;;8.41;100.00
40245;BME280;25963;42.694;23.600;2022-10-13T00:35:47;95951.00;;;8.38;100.00
40245;BME280;25963;42.694;23.600;2022-10-13T00:38:14;95958.63;;;8.33;100.00
40245;BME280;25963;42.694;23.600;2022-10-13T00:40:54;95953.34;;;8.33;100.00
40245;BME280;25963;42.694;23.600;2022-10-13T00:43:25;95958.63;;;8.33;100.00
40245;BME280;25963;42.694;23.600;2022-10-13T00:45:52;95945.84;;;8.15;100.00
40245;BME280;25963;42.694;23.600;2022-10-13T00:48:21;95944.84;;;8.01;100.00
40245;BME280;25963;42.694;23.600;2022-10-13T00:50:48;95944.69;;;7.88;100.00
40245;BME280;25963;42.694;23.600;2022-10-13T00:53:15;95938.50;;;7.81;100.00
40245;BME280;25963;42.694;23.600;2022-10-13T00:55:42;95945.78;;;7.78;100.00
40245;BME280;25963;42.694;23.600;2022-10-13T00:58:11;95947.03;;;7.83;100.00
40245;BME280;25963;42.694;23.600;2022-10-13T01:00:42;95930.75;;;8.02;100.00
40245;BME280;25963;42.694;23.600;2022-10-13T01:03:09;95934.91;;;8.11;100.00
40245;BME280;25963;42.694;23.600;2022-10-13T01:05:36;95938.50;;;8.10;100.00
40245;BME280;25963;42.694;23.600;2022-10-13T01:08:03;95929.81;;;7.95;100.00
40245;BME280;25963;42.694;23.600;2022-10-13T01:10:55;95932.56;;;7.87;100.00
40245;BME280;25963;42.694;23.600;2022-10-13T01:22:00;95926.31;;;7.88;100.00
40245;BME280;25963;42.694;23.600;2022-10-13T01:30:12;95934.78;;;8.05;100.00
40245;BME280;25963;42.694;23.600;2022-10-13T01:37:54;95934.63;;;7.91;100.00
40245;BME280;25963;42.694;23.600;2022-10-13T01:40:28;95932.44;;;7.80;100.00
40245;BME280;25963;42.694;23.600;2022-10-13T01:43:01;95922.22;;;7.70;100.00
40245;BME280;25963;42.694;23.600;2022-10-13T01:45:37;95930.00;;;7.64;100.00
40245;BME280;25963;42.694;23.600;2022-10-13T01:48:05;95933.97;;;7.74;100.00
40245;BME280;25963;42.694;23.600;2022-10-13T01:50:33;95926.66;;;7.85;100.00
40245;BME280;25963;42.694;23.600;2022-10-13T01:53:03;95927.47;;;7.70;100.00
40245;BME280;25963;42.694;23.600;2022-10-13T01:55:29;95934.31;;;7.42;100.00
40245;BME280;25963;42.694;23.600;2022-10-13T01:57:55;95929.06;;;7.42;100.00
40245;BME280;25963;42.694;23.600;2022-10-13T02:00:21;95929.88;;;7.27;100.00
40245;BME280;25963;42.694;23.600;2022-10-13T02:08:14;95928.59;;;7.38;100.00
40245;BME280;25963;42.694;23.600;2022-10-13T02:10:55;95926.19;;;7.37;100.00
40245;BME280;25963;42.694;23.600;2022-10-13T02:13:25;95929.41;;;7.39;100.00
40245;BME280;25963;42.694;23.600;2022-10-13T02:15:54;95923.44;;;7.45;100.00
40245;BME280;25963;42.694;23.600;2022-10-13T02:18:25;95926.81;;;7.53;100.00
40245;BME280;25963;42.694;23.600;2022-10-13T02:20:52;95918.19;;;7.45;100.00
40245;BME280;25963;42.694;23.600;2022-10-13T02:23:18;95924.66;;;7.57;100.00
40245;BME280;25963;42.694;23.600;2022-10-13T02:25:45;95920.69;;;7.61;100.00
40245;BME280;25963;42.694;23.600;2022-10-13T02:28:12;95917.84;;;7.63;100.00
40245;BME280;25963;42.694;23.600;2022-10-13T02:30:40;95914.34;;;7.70;100.00
40245;BME280;25963;42.694;23.600;2022-10-13T02:33:06;95921.22;;;7.71;100.00
40245;BME280;25963;42.694;23.600;2022-10-13T02:35:32;95921.75;;;7.52;100.00
40245;BME280;25963;42.694;23.600;2022-10-13T02:37:58;95919.03;;;7.45;100.00
40245;BME280;25963;42.694;23.600;2022-10-13T02:40:25;95908.28;;;7.55;100.00
40245;BME280;25963;42.694;23.600;2022-10-13T02:42:50;95904.84;;;7.54;100.00
40245;BME280;25963;42.694;23.600;2022-10-13T02:45:16;95900.47;;;7.62;100.00
40245;BME280;25963;42.694;23.600;2022-10-13T02:47:41;95906.47;;;7.70;100.00
40245;BME280;25963;42.694;23.600;2022-10-13T02:50:07;95906.47;;;7.70;100.00
40245;BME280;25963;42.694;23.600;2022-10-13T02:52:32;95908.56;;;7.60;100.00
40245;BME280;25963;42.694;23.600;2022-10-13T02:54:58;95909.00;;;7.49;100.00
40245;BME280;25963;42.694;23.600;2022-10-13T02:57:24;95901.41;;;7.54;100.00
40245;BME280;25963;42.694;23.600;2022-10-13T02:59:50;95905.28;;;7.58;100.00
40245;BME280;25963;42.694;23.600;2022-10-13T03:02:15;95899.59;;;7.54;100.00
40245;BME280;25963;42.694;23.600;2022-10-13T03:04:41;95901.84;;;7.72;100.00
40245;BME280;25963;42.694;23.600;2022-10-13T03:07:07;95898.06;;;7.75;100.00
40245;BME280;25963;42.694;23.600;2022-10-13T03:09:32;95906.81;;;7.67;100.00
40245;BME280;25963;42.694;23.600;2022-10-13T03:11:58;95897.56;;;7.57;100.00
40245;BME280;25963;42.694;23.600;2022-10-13T03:14:23;95903.31;;;7.60;100.00
40245;BME280;25963;42.694;23.600;2022-10-13T03:16:49;95890.25;;;7.52;100.00
40245;BME280;25963;42.694;23.600;2022-10-13T03:19:14;95897.56;;;7.57;100.00
40245;BME280;25963;42.694;23.600;2022-10-13T03:21:40;95892.69;;;7.68;100.00
40245;BME280;25963;42.694;23.600;2022-10-13T03:24:05;95890.44;;;7.65;100.00
40245;BME280;25963;42.694;23.600;2022-10-13T03:26:32;95897.13;;;7.53;100.00
40245;BME280;25963;42.694;23.600;2022-10-13T03:28:57;95902.81;;;7.42;100.00
40245;BME280;25963;42.694;23.600;2022-10-13T03:31:23;95902.44;;;7.45;100.00
40245;BME280;25963;42.694;23.600;2022-10-13T03:33:48;95892.66;;;7.39;100.00
40245;BME280;25963;42.694;23.600;2022-10-13T03:36:13;95890.63;;;7.49;100.00
40245;BME280;25963;42.694;23.600;2022-10-13T03:38:39;95895.88;;;7.49;100.00
40245;BME280;25963;42.694;23.600;2022-10-13T03:41:14;95907.19;;;7.64;100.00
40245;BME280;25963;42.694;23.600;2022-10-13T03:43:41;95901.22;;;7.70;100.00
40245;BME280;25963;42.694;23.600;2022-10-13T03:46:08;95902.84;;;7.71;100.00
40245;BME280;25963;42.694;23.600;2022-10-13T03:48:35;95895.88;;;7.64;100.00
40245;BME280;25963;42.694;23.600;2022-10-13T03:51:09;95893.25;;;7.78;100.00
40245;BME280;25963;42.694;23.600;2022-10-13T03:53:35;95900.69;;;7.90;100.00
40245;BME280;25963;42.694;23.600;2022-10-13T03:56:01;95898.31;;;7.95;100.00
40245;BME280;25963;42.694;23.600;2022-10-13T03:58:27;95892.22;;;7.94;100.00
40245;BME280;25963;42.694;23.600;2022-10-13T04:00:53;95895.88;;;7.93;100.00
40245;BME280;25963;42.694;23.600;2022-10-13T04:03:19;95899.03;;;7.89;100.00
40245;BME280;25963;42.694;23.600;2022-10-13T04:05:44;95894.94;;;7.86;100.00
40245;BME280;25963;42.694;23.600;2022-10-13T04:08:10;95897.22;;;7.89;100.00
40245;BME280;25963;42.694;23.600;2022-10-13T04:10:36;95898.56;;;8.00;100.00
40245;BME280;25963;42.694;23.600;2022-10-13T04:13:02;95897.22;;;7.74;100.00
40245;BME280;25963;42.694;23.600;2022-10-13T04:15:27;95887.44;;;7.68;100.00
40245;BME280;25963;42.694;23.600;2022-10-13T04:17:53;95893.69;;;7.82;100.00
40245;BME280;25963;42.694;23.600;2022-10-13T04:20:18;95886.19;;;7.64;100.00
40245;BME280;25963;42.694;23.600;2022-10-13T04:22:44;95886.53;;;7.61;100.00
40245;BME280;25963;42.694;23.600;2022-10-13T04:25:09;95890.53;;;7.57;100.00
40245;BME280;25963;42.694;23.600;2022-10-13T04:27:36;95880.41;;;7.69;100.00
40245;BME280;25963;42.694;23.600;2022-10-13T04:30:04;95882.44;;;7.44;100.00
40245;BME280;25963;42.694;23.600;2022-10-13T04:32:31;95886.16;;;7.35;100.00
40245;BME280;25963;42.694;23.600;2022-10-13T04:34:56;95879.72;;;7.22;100.00
40245;BME280;25963;42.694;23.600;2022-10-13T04:37:23;95880.00;;;7.27;100.00
40245;BME280;25963;42.694;23.600;2022-10-13T04:39:48;95884.53;;;7.34;100.00
40245;BME280;25963;42.694;23.600;2022-10-13T04:42:14;95879.66;;;7.30;100.00
40245;BME280;25963;42.694;23.600;2022-10-13T04:44:39;95893.19;;;7.19;100.00
40245;BME280;25963;42.694;23.600;2022-10-13T04:47:04;95888.66;;;7.13;100.00
40245;BME280;25963;42.694;23.600;2022-10-13T04:49:30;95890.84;;;7.24;100.00
40245;BME280;25963;42.694;23.600;2022-10-13T04:51:56;95892.94;;;7.29;100.00
40245;BME280;25963;42.694;23.600;2022-10-13T04:54:21;95885.25;;;7.27;100.00
40245;BME280;25963;42.694;23.600;2022-10-13T04:56:47;95897.19;;;7.45;100.00
40245;BME280;25963;42.694;23.600;2022-10-13T04:59:12;95884.63;;;7.40;100.00
40245;BME280;25963;42.694;23.600;2022-10-13T05:01:38;95879.38;;;7.40;100.00
40245;BME280;25963;42.694;23.600;2022-10-13T05:04:03;95882.81;;;7.41;100.00
40245;BME280;25963;42.694;23.600;2022-10-13T05:06:34;95894.84;;;7.50;100.00
40245;BME280;25963;42.694;23.600;2022-10-13T05:09:00;95891.78;;;7.61;100.00
40245;BME280;25963;42.694;23.600;2022-10-13T05:11:27;95892.97;;;7.73;100.00
40245;BME280;25963;42.694;23.600;2022-10-13T05:13:53;95882.66;;;7.72;100.00
40245;BME280;25963;42.694;23.600;2022-10-13T05:16:19;95888.59;;;7.81;100.00
40245;BME280;25963;42.694;23.600;2022-10-13T05:18:46;95896.69;;;7.94;100.00
40245;BME280;25963;42.694;23.600;2022-10-13T05:21:18;95904.09;;;8.05;100.00
40245;BME280;25963;42.694;23.600;2022-10-13T05:23:44;95901.81;;;8.17;100.00
40245;BME280;25963;42.694;23.600;2022-10-13T05:26:12;95897.88;;;8.28;100.00
40245;BME280;25963;42.694;23.600;2022-10-13T05:28:39;95899.41;;;8.37;100.00
40245;BME280;25963;42.694;23.600;2022-10-13T05:31:15;95890.53;;;8.38;100.00
40245;BME280;25963;42.694;23.600;2022-10-13T05:33:41;95913.88;;;8.62;100.00
40245;BME280;25963;42.694;23.600;2022-10-13T05:36:13;95911.56;;;8.74;100.00
40245;BME280;25963;42.694;23.600;2022-10-13T05:38:38;95917.16;;;8.86;100.00
40245;BME280;25963;42.694;23.600;2022-10-13T05:41:08;95917.69;;;9.03;100.00
40245;BME280;25963;42.694;23.600;2022-10-13T05:43:35;95918.25;;;9.20;100.00
40245;BME280;25963;42.694;23.600;2022-10-13T05:46:02;95920.25;;;9.18;100.00
40245;BME280;25963;42.694;23.600;2022-10-13T05:48:28;95919.50;;;9.24;100.00
40245;BME280;25963;42.694;23.600;2022-10-13T05:50:54;95920.06;;;9.41;100.00
40245;BME280;25963;42.694;23.600;2022-10-13T05:53:22;95929.81;;;9.47;100.00
40245;BME280;25963;42.694;23.600;2022-10-13T05:55:49;95930.06;;;9.52;100.00
40245;BME280;25963;42.694;23.600;2022-10-13T05:58:15;95923.81;;;9.59;100.00
40245;BME280;25963;42.694;23.600;2022-10-13T06:00:42;95930.78;;;9.67;100.00
40245;BME280;25963;42.694;23.600;2022-10-13T06:03:11;95937.88;;;9.67;100.00
40245;BME280;25963;42.694;23.600;2022-10-13T06:05:39;95938.31;;;9.77;100.00
40245;BME280;25963;42.694;23.600;2022-10-13T06:08:08;95937.81;;;9.95;100.00
40245;BME280;25963;42.694;23.600;2022-10-13T06:10:33;95933.84;;;10.05;100.00
40245;BME280;25963;42.694;23.600;2022-10-13T06:12:59;95931.63;;;10.09;100.00
40245;BME280;25963;42.694;23.600;2022-10-13T06:15:24;95939.28;;;10.32;100.00
40245;BME280;25963;42.694;23.600;2022-10-13T06:17:50;95932.63;;;10.49;100.00
40245;BME280;25963;42.694;23.600;2022-10-13T06:20:15;95930.06;;;10.63;100.00
40245;BME280;25963;42.694;23.600;2022-10-13T06:22:40;95935.81;;;10.86;100.00
40245;BME280;25963;42.694;23.600;2022-10-13T06:25:07;95941.09;;;10.93;100.00
40245;BME280;25963;42.694;23.600;2022-10-13T06:27:33;95939.88;;;11.02;100.00
40245;BME280;25963;42.694;23.600;2022-10-13T06:29:58;95939.06;;;11.15;100.00
40245;BME280;25963;42.694;23.600;2022-10-13T06:32:24;95938.69;;;11.38;100.00
40245;BME280;25963;42.694;23.600;2022-10-13T06:34:49;95932.00;;;11.49;100.00
40245;BME280;25963;42.694;23.600;2022-10-13T06:37:15;95930.34;;;11.48;100.00
40245;BME280;25963;42.694;23.600;2022-10-13T06:39:40;95935.41;;;11.69;100.00
40245;BME280;25963;42.694;23.600;2022-10-13T06:42:06;95930.97;;;11.76;100.00
40245;BME280;25963;42.694;23.600;2022-10-13T06:44:32;95933.75;;;12.08;100.00
40245;BME280;25963;42.694;23.600;2022-10-13T06:47:13;95928.78;;;12.38;100.00
40245;BME280;25963;42.694;23.600;2022-10-13T06:49:38;95926.22;;;12.63;100.00
40245;BME280;25963;42.694;23.600;2022-10-13T06:52:04;95936.25;;;12.54;100.00
40245;BME280;25963;42.694;23.600;2022-10-13T06:54:30;95932.97;;;12.59;100.00
40245;BME280;25963;42.694;23.600;2022-10-13T06:56:55;95936.00;;;12.63;100.00
40245;BME280;25963;42.694;23.600;2022-10-13T06:59:20;95932.25;;;12.77;100.00
40245;BME280;25963;42.694;23.600;2022-10-13T07:01:47;95929.69;;;13.02;100.00
40245;BME280;25963;42.694;23.600;2022-10-13T07:04:13;95942.41;;;12.80;100.00
40245;BME280;25963;42.694;23.600;2022-10-13T07:06:39;95939.38;;;12.76;100.00
40245;BME280;25963;42.694;23.600;2022-10-13T07:09:05;95936.16;;;12.68;100.00
40245;BME280;25963;42.694;23.600;2022-10-13T07:11:31;95931.44;;;12.76;100.00
40245;BME280;25963;42.694;23.600;2022-10-13T07:13:56;95921.50;;;13.03;100.00
40245;BME280;25963;42.694;23.600;2022-10-13T07:16:22;95913.78;;;13.02;100.00
40245;BME280;25963;42.694;23.600;2022-10-13T07:18:47;95901.41;;;12.96;100.00
40245;BME280;25963;42.694;23.600;2022-10-13T07:21:13;95907.38;;;13.16;100.00
40245;BME280;25963;42.694;23.600;2022-10-13T07:23:39;95901.97;;;13.05;100.00
40245;BME280;25963;42.694;23.600;2022-10-13T07:26:09;95915.16;;;13.11;100.00
40245;BME280;25963;42.694;23.600;2022-10-13T07:28:35;95905.06;;;12.95;100.00
40245;BME280;25963;42.694;23.600;2022-10-13T07:31:06;95915.63;;;13.33;100.00
40245;BME280;25963;42.694;23.600;2022-10-13T07:33:32;95911.13;;;13.34;100.00
40245;BME280;25963;42.694;23.600;2022-10-13T07:35:58;95907.13;;;13.75;100.00
40245;BME280;25963;42.694;23.600;2022-10-13T07:38:23;95910.66;;;13.87;100.00
40245;BME280;25963;42.694;23.600;2022-10-13T07:40:49;95903.47;;;13.94;100.00
40245;BME280;25963;42.694;23.600;2022-10-13T07:43:14;95912.31;;;14.06;100.00
40245;BME280;25963;42.694;23.600;2022-10-13T07:45:40;95904.03;;;14.14;100.00
40245;BME280;25963;42.694;23.600;2022-10-13T07:48:05;95903.47;;;14.31;100.00
40245;BME280;25963;42.694;23.600;2022-10-13T07:50:30;95904.53;;;14.42;100.00
40245;BME280;25963;42.694;23.600;2022-10-13T07:52:56;95899.47;;;14.58;100.00
40245;BME280;25963;42.694;23.600;2022-10-13T07:55:22;95904.34;;;14.25;100.00
40245;BME280;25963;42.694;23.600;2022-10-13T07:57:47;95905.25;;;14.19;100.00
40245;BME280;25963;42.694;23.600;2022-10-13T08:00:13;95902.84;;;14.66;100.00
40245;BME280;25963;42.694;23.600;2022-10-13T08:02:38;95889.94;;;14.99;100.00
40245;BME280;25963;42.694;23.600;2022-10-13T08:05:04;95898.06;;;15.28;100.00
40245;BME280;25963;42.694;23.600;2022-10-13T08:07:30;95898.56;;;15.48;100.00
40245;BME280;25963;42.694;23.600;2022-10-13T08:09:55;95889.69;;;15.78;100.00
40245;BME280;25963;42.694;23.600;2022-10-13T08:12:20;95891.97;;;15.39;98.80
40245;BME280;25963;42.694;23.600;2022-10-13T08:14:49;95887.03;;;15.78;99.00
40245;BME280;25963;42.694;23.600;2022-10-13T08:17:15;95886.81;;;15.91;97.91
40245;BME280;25963;42.694;23.600;2022-10-13T08:19:40;95887.16;;;15.83;100.00
40245;BME280;25963;42.694;23.600;2022-10-13T08:22:07;95886.34;;;15.94;95.86
40245;BME280;25963;42.694;23.600;2022-10-13T08:24:33;95882.28;;;16.15;97.06
40245;BME280;25963;42.694;23.600;2022-10-13T08:26:58;95879.69;;;16.20;99.25
40245;BME280;25963;42.694;23.600;2022-10-13T08:29:24;95883.25;;;16.38;94.97
40245;BME280;25963;42.694;23.600;2022-10-13T08:31:53;95868.16;;;16.55;98.70
40245;BME280;25963;42.694;23.600;2022-10-13T08:34:18;95865.59;;;16.89;98.08
40245;BME280;25963;42.694;23.600;2022-10-13T08:36:44;95868.94;;;16.96;89.78
40245;BME280;25963;42.694;23.600;2022-10-13T08:39:10;95872.19;;;17.15;96.41
40245;BME280;25963;42.694;23.600;2022-10-13T08:41:38;95869.13;;;17.23;90.72
40245;BME280;25963;42.694;23.600;2022-10-13T08:45:01;95865.38;;;17.24;100.00
40245;BME280;25963;42.694;23.600;2022-10-13T08:47:36;95874.25;;;17.13;89.07
40245;BME280;25963;42.694;23.600;2022-10-13T08:50:17;95865.97;;;17.26;93.50
40245;BME280;25963;42.694;23.600;2022-10-13T08:52:51;95850.69;;;17.22;89.12
40245;BME280;25963;42.694;23.600;2022-10-13T08:55:39;95855.84;;;17.28;86.24
40245;BME280;25963;42.694;23.600;2022-10-13T08:58:32;95847.44;;;17.20;86.01
40245;BME280;25963;42.694;23.600;2022-10-13T09:09:34;95840.78;;;17.90;88.33
40245;BME280;25963;42.694;23.600;2022-10-13T09:11:59;95827.50;;;17.95;84.21
40245;BME280;25963;42.694;23.600;2022-10-13T09:14:31;95824.66;;;18.23;87.98
40245;BME280;25963;42.694;23.600;2022-10-13T09:19:40;95830.25;;;18.71;83.09
40245;BME280;25963;42.694;23.600;2022-10-13T09:22:29;95830.47;;;18.69;80.13
40245;BME280;25963;42.694;23.600;2022-10-13T09:36:08;95816.72;;;19.10;78.44
40245;BME280;25963;42.694;23.600;2022-10-13T09:38:39;95805.75;;;19.44;80.18
40245;BME280;25963;42.694;23.600;2022-10-13T09:41:09;95809.59;;;19.58;79.53
40245;BME280;25963;42.694;23.600;2022-10-13T09:46:31;95795.25;;;19.37;74.11
40245;BME280;25963;42.694;23.600;2022-10-13T09:49:33;95788.84;;;19.01;76.77
40245;BME280;25963;42.694;23.600;2022-10-13T09:52:22;95775.88;;;19.14;77.78
40245;BME280;25963;42.694;23.600;2022-10-13T09:54:51;95773.81;;;19.27;76.42
40245;BME280;25963;42.694;23.600;2022-10-13T09:57:45;95780.19;;;19.26;81.95
40245;BME280;25963;42.694;23.600;2022-10-13T10:00:17;95782.03;;;19.57;79.33
40245;BME280;25963;42.694;23.600;2022-10-13T10:02:45;95770.00;;;19.60;79.59
40245;BME280;25963;42.694;23.600;2022-10-13T10:05:42;95771.69;;;19.71;74.47
40245;BME280;25963;42.694;23.600;2022-10-13T10:11:14;95762.69;;;19.98;73.89
40245;BME280;25963;42.694;23.600;2022-10-13T10:13:41;95762.47;;;20.04;72.75
40245;BME280;25963;42.694;23.600;2022-10-13T10:16:23;95758.91;;;19.89;70.06
40245;BME280;25963;42.694;23.600;2022-10-13T10:19:02;95752.06;;;20.18;75.34
40245;BME280;25963;42.694;23.600;2022-10-13T10:21:56;95743.31;;;20.43;72.75
40245;BME280;25963;42.694;23.600;2022-10-13T10:30:24;95730.75;;;20.69;78.67
40245;BME280;25963;42.694;23.600;2022-10-13T10:35:46;95728.00;;;20.34;73.47
40245;BME280;25963;42.694;23.600;2022-10-13T10:41:00;95712.53;;;20.97;73.94
40245;BME280;25963;42.694;23.600;2022-10-13T10:43:51;95707.97;;;20.92;73.73
40245;BME280;25963;42.694;23.600;2022-10-13T10:46:22;95713.06;;;20.79;76.50
40245;BME280;25963;42.694;23.600;2022-10-13T10:48:52;95706.34;;;21.02;72.81
40245;BME280;25963;42.694;23.600;2022-10-13T10:51:22;95698.84;;;20.93;72.44
40245;BME280;25963;42.694;23.600;2022-10-13T11:03:57;95685.44;;;20.58;64.08
40245;BME280;25963;42.694;23.600;2022-10-13T11:06:33;95687.59;;;20.66;65.70
40245;BME280;25963;42.694;23.600;2022-10-13T11:08:59;95681.97;;;20.83;67.18
40245;BME280;25963;42.694;23.600;2022-10-13T11:13:56;95665.81;;;21.24;68.13
40245;BME280;25963;42.694;23.600;2022-10-13T11:16:32;95663.38;;;21.37;68.50
40245;BME280;25963;42.694;23.600;2022-10-13T11:27:25;95643.63;;;20.77;61.09
40245;BME280;25963;42.694;23.600;2022-10-13T11:29:54;95642.03;;;20.76;60.27
40245;BME280;25963;42.694;23.600;2022-10-13T11:56:54;95597.81;;;21.54;53.11
40245;BME280;25963;42.694;23.600;2022-10-13T12:01:56;95586.41;;;21.82;57.55
40245;BME280;25963;42.694;23.600;2022-10-13T12:04:23;95585.25;;;21.99;53.85
40245;BME280;25963;42.694;23.600;2022-10-13T12:06:55;95582.81;;;21.97;53.29
40245;BME280;25963;42.694;23.600;2022-10-13T12:09:22;95578.75;;;22.05;52.68
40245;BME280;25963;42.694;23.600;2022-10-13T12:11:56;95584.19;;;21.95;54.59
40245;BME280;25963;42.694;23.600;2022-10-13T12:14:30;95586.75;;;21.65;49.75
40245;BME280;25963;42.694;23.600;2022-10-13T12:16:58;95587.59;;;21.61;50.62
40245;BME280;25963;42.694;23.600;2022-10-13T12:19:26;95600.00;;;21.57;48.44
40245;BME280;25963;42.694;23.600;2022-10-13T12:21:54;95586.75;;;21.65;50.20
40245;BME280;25963;42.694;23.600;2022-10-13T12:24:22;95589.59;;;21.40;49.05
40245;BME280;25963;42.694;23.600;2022-10-13T12:26:48;95586.91;;;21.30;50.06
40245;BME280;25963;42.694;23.600;2022-10-13T12:29:18;95587.69;;;21.46;52.63
40245;BME280;25963;42.694;23.600;2022-10-13T12:31:47;95576.56;;;21.62;53.40
40245;BME280;25963;42.694;23.600;2022-10-13T12:34:29;95584.56;;;21.78;48.51
40245;BME280;25963;42.694;23.600;2022-10-13T12:37:02;95581.91;;;21.73;48.77
40245;BME280;25963;42.694;23.600;2022-10-13T12:39:30;95583.41;;;21.29;47.33
40245;BME280;25963;42.694;23.600;2022-10-13T12:41:56;95570.88;;;21.74;51.40
40245;BME280;25963;42.694;23.600;2022-10-13T12:44:26;95572.66;;;21.89;48.50
40245;BME280;25963;42.694;23.600;2022-10-13T12:46:55;95572.91;;;21.93;48.30
40245;BME280;25963;42.694;23.600;2022-10-13T12:49:33;95566.41;;;21.59;47.30
40245;BME280;25963;42.694;23.600;2022-10-13T12:52:11;95563.59;;;21.80;47.73
40245;BME280;25963;42.694;23.600;2022-10-13T12:55:11;95562.81;;;21.79;47.90
40245;BME280;25963;42.694;23.600;2022-10-13T12:57:36;95560.19;;;21.69;45.75
40245;BME280;25963;42.694;23.600;2022-10-13T13:00:24;95557.53;;;21.64;47.23
40245;BME280;25963;42.694;23.600;2022-10-13T13:03:05;95551.59;;;21.67;45.71
40245;BME280;25963;42.694;23.600;2022-10-13T13:05:41;95559.38;;;21.69;47.40
40245;BME280;25963;42.694;23.600;2022-10-13T13:08:28;95550.16;;;21.85;49.70
40245;BME280;25963;42.694;23.600;2022-10-13T13:10:59;95543.91;;;21.89;47.38
40245;BME280;25963;42.694;23.600;2022-10-13T13:13:25;95544.97;;;21.99;49.97
40245;BME280;25963;42.694;23.600;2022-10-13T13:16:12;95547.38;;;21.95;48.85
40245;BME280;25963;42.694;23.600;2022-10-13T13:18:39;95546.59;;;21.89;48.04
40245;BME280;25963;42.694;23.600;2022-10-13T13:21:08;95528.56;;;21.56;45.90
40245;BME280;25963;42.694;23.600;2022-10-13T13:23:35;95536.69;;;21.46;45.97
40245;BME280;25963;42.694;23.600;2022-10-13T13:28:55;95544.47;;;21.47;45.24
40245;BME280;25963;42.694;23.600;2022-10-13T13:31:23;95545.78;;;21.50;46.99
40245;BME280;25963;42.694;23.600;2022-10-13T13:33:49;95552.50;;;21.52;46.86
40245;BME280;25963;42.694;23.600;2022-10-13T13:36:18;95548.44;;;21.55;46.71
40245;BME280;25963;42.694;23.600;2022-10-13T13:38:48;95552.88;;;21.20;48.01
40245;BME280;25963;42.694;23.600;2022-10-13T13:41:17;95548.22;;;20.66;52.35
40245;BME280;25963;42.694;23.600;2022-10-13T13:43:43;95547.41;;;20.60;54.90
40245;BME280;25963;42.694;23.600;2022-10-13T13:46:15;95550.91;;;20.45;56.00
40245;BME280;25963;42.694;23.600;2022-10-13T13:48:41;95556.00;;;20.06;55.28
40245;BME280;25963;42.694;23.600;2022-10-13T13:51:10;95559.75;;;20.05;57.65
40245;BME280;25963;42.694;23.600;2022-10-13T13:53:35;95559.19;;;19.82;58.26
40245;BME280;25963;42.694;23.600;2022-10-13T13:56:01;95551.69;;;19.79;59.70
40245;BME280;25963;42.694;23.600;2022-10-13T13:58:27;95546.59;;;19.73;58.78
40245;BME280;25963;42.694;23.600;2022-10-13T14:00:52;95547.63;;;19.61;60.00
40245;BME280;25963;42.694;23.600;2022-10-13T14:03:17;95552.97;;;19.51;60.14
40245;BME280;25963;42.694;23.600;2022-10-13T14:05:43;95553.75;;;19.52;61.46
40245;BME280;25963;42.694;23.600;2022-10-13T14:08:08;95552.72;;;19.63;61.65
40245;BME280;25963;42.694;23.600;2022-10-13T14:10:34;95550.81;;;19.48;62.25
40245;BME280;25963;42.694;23.600;2022-10-13T14:13:00;95550.16;;;19.15;62.76
40245;BME280;25963;42.694;23.600;2022-10-13T14:15:26;95557.09;;;19.06;62.65
40245;BME280;25963;42.694;23.600;2022-10-13T14:17:52;95550.34;;;18.93;64.29
40245;BME280;25963;42.694;23.600;2022-10-13T14:20:18;95555.97;;;18.97;64.58
40245;BME280;25963;42.694;23.600;2022-10-13T14:22:43;95543.34;;;18.87;64.82
40245;BME280;25963;42.694;23.600;2022-10-13T14:25:09;95544.69;;;18.90;65.33
40245;BME280;25963;42.694;23.600;2022-10-13T14:27:35;95538.25;;;18.76;66.33
40245;BME280;25963;42.694;23.600;2022-10-13T14:30:04;95541.84;;;18.59;64.88
40245;BME280;25963;42.694;23.600;2022-10-13T14:32:30;95537.06;;;18.66;66.31
40245;BME280;25963;42.694;23.600;2022-10-13T14:34:56;95541.03;;;18.59;66.81
40245;BME280;25963;42.694;23.600;2022-10-13T14:37:22;95540.19;;;18.53;66.26
40245;BME280;25963;42.694;23.600;2022-10-13T14:39:47;95548.78;;;18.60;67.15
40245;BME280;25963;42.694;23.600;2022-10-13T14:42:12;95540.34;;;18.36;66.46
40245;BME280;25963;42.694;23.600;2022-10-13T14:44:38;95536.91;;;18.41;67.53
40245;BME280;25963;42.694;23.600;2022-10-13T14:47:03;95539.31;;;18.37;66.80
40245;BME280;25963;42.694;23.600;2022-10-13T14:49:29;95545.63;;;18.26;67.77
40245;BME280;25963;42.694;23.600;2022-10-13T14:51:54;95554.34;;;18.11;68.24